Time;durP1;ratioP1;P1;durP2;ratioP2;P2;SDS_P1;SDS_P2;PMS_P1;PMS_P2;Temp;Humidity;BMP_temperature;BMP_pressure;BME280_temperature;BME280_humidity;BME280_pressure;Samples;Min_cycle;Max_cycle;Signal;HPM_P1;HPM_P2
2022/10/29 00:00:49;;;;;;;4.87;1.60;;;;;;;16.71;94.33;101476.94;4957006;28;20458;-73
2022/10/29 00:03:15;;;;;;;14.50;2.77;;;;;;;16.82;93.34;101479.06;4959563;28;20538;-71
2022/10/29 00:05:42;;;;;;;5.20;2.00;;;;;;;16.86;93.20;101484.69;4957242;28;20533;-74
2022/10/29 00:08:08;;;;;;;16.30;2.30;;;;;;;16.93;92.91;101482.28;4957398;28;20483;-72
2022/10/29 00:10:34;;;;;;;5.20;1.53;;;;;;;17.03;92.25;101492.09;4957156;28;20526;-74
2022/10/29 00:13:03;;;;;;;9.97;2.97;;;;;;;17.04;91.72;101480.81;4958859;28;20541;-74
2022/10/29 00:15:29;;;;;;;10.07;3.03;;;;;;;17.03;91.43;101476.47;4954427;28;20473;-72
2022/10/29 00:17:56;;;;;;;4.13;1.67;;;;;;;17.02;91.63;101482.28;4955618;28;20471;-74
2022/10/29 00:20:22;;;;;;;6.60;2.00;;;;;;;17.01;91.56;101483.44;4957128;28;20475;-72
2022/10/29 00:22:52;;;;;;;8.87;2.33;;;;;;;17.01;91.71;101492.44;4958741;28;20466;-73
2022/10/29 00:25:18;;;;;;;7.83;2.50;;;;;;;17.05;91.89;101496.16;4957117;29;20449;-74
2022/10/29 00:27:45;;;;;;;6.80;2.13;;;;;;;17.02;92.34;101493.25;4956759;28;20541;-73
2022/10/29 00:30:13;;;;;;;6.77;2.47;;;;;;;17.02;92.32;101504.19;4956904;29;21091;-74
2022/10/29 00:32:40;;;;;;;6.40;2.70;;;;;;;17.08;92.14;101511.09;4959623;28;20469;-74
2022/10/29 00:35:07;;;;;;;22.80;3.30;;;;;;;17.15;91.68;101519.66;4957649;28;20443;-73
2022/10/29 00:37:34;;;;;;;4.50;1.83;;;;;;;17.16;91.69;101532.22;4957072;28;20864;-74
2022/10/29 00:40:01;;;;;;;7.13;2.90;;;;;;;17.11;92.05;101540.59;4956452;28;20477;-73
2022/10/29 00:42:27;;;;;;;10.63;3.17;;;;;;;17.15;92.19;101530.59;4957056;28;20442;-72
2022/10/29 00:44:53;;;;;;;9.00;2.70;;;;;;;17.15;92.30;101527.88;4958907;28;20490;-73
2022/10/29 00:47:26;;;;;;;4.70;1.80;;;;;;;17.19;91.96;101526.09;4956542;29;20466;-73
2022/10/29 00:49:56;;;;;;;9.13;2.60;;;;;;;17.12;92.53;101521.09;4955981;28;20463;-74
2022/10/29 00:52:27;;;;;;;15.80;2.90;;;;;;;17.14;92.29;101524.31;4956768;28;20504;-73
2022/10/29 00:54:55;;;;;;;8.53;3.00;;;;;;;17.05;92.86;101514.50;4957946;28;20498;-73
2022/10/29 00:57:27;;;;;;;7.60;2.93;;;;;;;17.00;93.34;101504.53;4956203;29;20486;-74
2022/10/29 00:59:54;;;;;;;6.63;2.53;;;;;;;16.89;93.88;101509.50;4955418;28;21012;-74
2022/10/29 01:02:23;;;;;;;6.10;2.17;;;;;;;16.87;94.18;101508.22;4955369;28;20471;-74
2022/10/29 01:04:51;;;;;;;8.50;3.30;;;;;;;16.86;94.62;101512.06;4956437;28;20569;-72
2022/10/29 01:07:18;;;;;;;11.53;2.50;;;;;;;16.88;94.58;101524.31;4955848;28;20482;-73
2022/10/29 01:09:44;;;;;;;8.43;2.77;;;;;;;16.83;94.77;101520.94;4955855;28;20463;-74
2022/10/29 01:12:40;;;;;;;7.70;2.40;;;;;;;16.85;94.91;101530.41;4959269;28;20838;-74
2022/10/29 01:15:17;;;;;;;11.57;2.70;;;;;;;16.87;94.65;101524.63;4956388;28;20431;-73
2022/10/29 01:17:57;;;;;;;7.30;2.40;;;;;;;16.82;94.70;101525.59;4955872;28;20482;-72
2022/10/29 01:20:50;;;;;;;18.03;3.60;;;;;;;16.77;94.99;101525.72;4955571;28;20446;-72
2022/10/29 01:23:48;;;;;;;6.27;2.60;;;;;;;16.75;95.30;101508.84;4951769;28;20475;-74
2022/10/29 01:26:36;;;;;;;6.23;2.33;;;;;;;16.68;94.85;101524.88;4955617;28;20525;-74
2022/10/29 01:29:18;;;;;;;7.23;2.07;;;;;;;16.67;95.03;101515.06;4955567;28;20985;-74
2022/10/29 01:31:51;;;;;;;8.53;2.30;;;;;;;16.61;95.44;101514.41;4957102;28;20462;-74
2022/10/29 01:34:25;;;;;;;6.80;3.37;;;;;;;16.49;95.59;101510.69;4936680;29;20916;-74
2022/10/29 01:36:57;;;;;;;9.30;2.70;;;;;;;16.45;96.28;101523.38;4948195;28;21005;-73
2022/10/29 01:39:31;;;;;;;16.10;2.90;;;;;;;16.44;97.54;101527.25;4956056;29;20430;-72
2022/10/29 01:42:04;;;;;;;9.73;2.40;;;;;;;16.43;97.78;101531.91;4955501;28;20463;-73
2022/10/29 01:44:37;;;;;;;4.63;2.07;;;;;;;16.45;98.40;101528.84;4958369;28;20486;-73
2022/10/29 01:47:12;;;;;;;9.67;3.77;;;;;;;16.45;97.98;101526.13;4955263;28;20482;-73
2022/10/29 01:49:42;;;;;;;8.17;3.07;;;;;;;16.38;97.69;101535.59;4955587;29;20902;-74
2022/10/29 01:52:12;;;;;;;9.73;2.67;;;;;;;16.32;98.23;101536.84;4955283;28;20466;-73
2022/10/29 01:54:40;;;;;;;9.20;2.87;;;;;;;16.30;98.57;101541.03;4956989;28;20458;-74
2022/10/29 01:57:26;;;;;;;7.93;2.70;;;;;;;16.17;97.99;101540.03;4936395;29;20487;-73
2022/10/29 01:59:53;;;;;;;8.43;3.00;;;;;;;16.08;98.32;101544.66;4952293;28;20466;-72
2022/10/29 02:02:30;;;;;;;5.87;3.10;;;;;;;16.00;98.89;101542.66;4955621;29;20837;-72
2022/10/29 02:05:10;;;;;;;19.07;3.10;;;;;;;15.91;98.92;101550.03;4954224;29;21016;-73
2022/10/29 02:07:45;;;;;;;6.97;2.80;;;;;;;15.80;99.63;101546.72;4954647;28;20989;-71
2022/10/29 02:10:19;;;;;;;10.60;2.00;;;;;;;15.79;100.00;101545.94;4955460;29;20427;-72
2022/10/29 02:12:49;;;;;;;7.73;3.53;;;;;;;15.82;100.00;101541.78;4954800;28;20457;-72
2022/10/29 02:15:19;;;;;;;7.20;2.93;;;;;;;15.78;100.00;101549.78;4957387;28;20488;-72
2022/10/29 02:17:47;;;;;;;5.97;2.50;;;;;;;15.75;100.00;101546.88;4955448;28;20477;-74
2022/10/29 02:20:15;;;;;;;11.30;2.93;;;;;;;15.76;100.00;101552.03;4955208;28;21008;-73
2022/10/29 02:22:42;;;;;;;11.50;3.33;;;;;;;15.76;100.00;101562.97;4954854;28;20898;-75
2022/10/29 02:25:10;;;;;;;8.90;3.03;;;;;;;15.74;100.00;101565.19;4957113;28;20489;-74
2022/10/29 02:27:36;;;;;;;10.73;3.53;;;;;;;15.81;100.00;101565.56;4955224;29;20478;-74
2022/10/29 02:30:04;;;;;;;7.23;3.40;;;;;;;15.82;100.00;101561.69;4954796;28;20473;-73
2022/10/29 02:32:31;;;;;;;6.70;2.57;;;;;;;15.73;100.00;101573.69;4954929;28;20470;-73
2022/10/29 02:34:59;;;;;;;7.37;3.20;;;;;;;15.67;100.00;101570.28;4955441;28;20537;-74
2022/10/29 02:37:26;;;;;;;7.10;3.27;;;;;;;15.71;100.00;101576.72;4957178;28;20490;-73
2022/10/29 02:39:52;;;;;;;9.50;3.20;;;;;;;15.74;100.00;101578.03;4954905;28;20946;-74
2022/10/29 02:42:18;;;;;;;10.90;2.90;;;;;;;15.70;100.00;101583.31;4958652;28;20478;-73
2022/10/29 02:44:45;;;;;;;7.73;3.17;;;;;;;15.62;100.00;101573.91;4959256;28;20548;-72
2022/10/29 02:47:11;;;;;;;34.00;3.57;;;;;;;15.59;100.00;101576.47;4961016;28;20486;-73
2022/10/29 02:49:38;;;;;;;8.60;3.13;;;;;;;15.55;100.00;101583.66;4959234;28;20477;-74
2022/10/29 02:52:05;;;;;;;5.97;3.00;;;;;;;15.53;100.00;101577.69;4958629;28;20957;-73
2022/10/29 02:54:32;;;;;;;7.23;3.00;;;;;;;15.52;100.00;101584.28;4959077;29;20450;-74
2022/10/29 02:56:58;;;;;;;8.43;3.07;;;;;;;15.53;100.00;101575.75;4960610;28;20517;-73
2022/10/29 02:59:25;;;;;;;7.63;3.37;;;;;;;15.53;100.00;101586.69;4958757;29;20969;-73
2022/10/29 03:01:51;;;;;;;12.10;3.07;;;;;;;15.52;100.00;101576.88;4958390;28;20466;-73
2022/10/29 03:04:18;;;;;;;8.87;3.07;;;;;;;15.51;100.00;101574.47;4958790;29;20486;-74
2022/10/29 03:06:44;;;;;;;6.27;2.93;;;;;;;15.46;100.00;101569.94;4957571;28;21044;-73
2022/10/29 03:09:12;;;;;;;6.30;2.40;;;;;;;15.44;100.00;101577.63;4958816;28;20482;-72
2022/10/29 03:11:38;;;;;;;7.77;2.97;;;;;;;15.42;100.00;101576.34;4961078;28;20463;-73
2022/10/29 03:14:05;;;;;;;11.03;3.07;;;;;;;15.40;100.00;101571.16;4957792;28;20466;-72
2022/10/29 03:16:31;;;;;;;5.60;2.20;;;;;;;15.35;100.00;101571.28;4960316;28;20482;-72
2022/10/29 03:18:57;;;;;;;7.43;2.43;;;;;;;15.31;100.00;101565.63;4958846;29;20501;-73
2022/10/29 03:21:24;;;;;;;6.17;2.20;;;;;;;15.27;100.00;101563.81;4957197;28;20493;-72
2022/10/29 03:23:50;;;;;;;7.90;2.80;;;;;;;15.22;100.00;101570.22;4958274;29;20447;-72
2022/10/29 03:26:18;;;;;;;7.10;3.20;;;;;;;15.17;100.00;101570.34;4960142;28;20462;-71
2022/10/29 03:28:44;;;;;;;7.00;2.53;;;;;;;15.12;100.00;101567.72;4957842;28;20895;-71
2022/10/29 03:31:11;;;;;;;8.83;3.80;;;;;;;15.08;100.00;101575.72;4958318;29;20446;-72
2022/10/29 03:33:37;;;;;;;8.63;2.93;;;;;;;15.07;100.00;101565.91;4957831;28;20481;-73
2022/10/29 03:36:07;;;;;;;7.40;3.37;;;;;;;15.03;100.00;101575.03;4957737;28;20497;-74
2022/10/29 03:38:34;;;;;;;9.83;3.23;;;;;;;14.98;100.00;101573.22;4958972;28;20487;-73
2022/10/29 03:41:07;;;;;;;14.63;3.80;;;;;;;14.92;100.00;101568.16;4958383;28;20509;-73
2022/10/29 03:43:35;;;;;;;6.00;3.00;;;;;;;14.85;100.00;101580.31;4952828;28;20466;-74
2022/10/29 03:46:01;;;;;;;8.87;3.50;;;;;;;14.77;100.00;101581.03;4957759;29;20517;-74
2022/10/29 03:48:27;;;;;;;8.80;3.10;;;;;;;14.77;100.00;101586.47;4960042;28;20619;-72
2022/10/29 03:50:55;;;;;;;7.43;2.73;;;;;;;14.73;100.00;101585.47;4958000;28;20450;-72
2022/10/29 03:53:22;;;;;;;12.83;3.20;;;;;;;14.68;100.00;101580.13;4957247;28;20498;-72
2022/10/29 03:55:50;;;;;;;10.33;3.90;;;;;;;14.69;100.00;101586.38;4957218;28;20486;-72
2022/10/29 03:58:16;;;;;;;9.90;3.80;;;;;;;14.68;100.00;101582.03;4957551;28;20497;-74
2022/10/29 04:00:44;;;;;;;6.37;2.67;;;;;;;14.72;100.00;101585.78;4958472;28;20478;-72
2022/10/29 04:03:10;;;;;;;9.40;2.87;;;;;;;14.73;100.00;101595.56;4956741;28;20450;-72
2022/10/29 04:05:37;;;;;;;10.03;3.93;;;;;;;14.74;100.00;101595.28;4956064;28;20553;-72
2022/10/29 04:08:03;;;;;;;9.37;3.90;;;;;;;14.76;100.00;101590.31;4956660;29;20509;-72
2022/10/29 04:10:30;;;;;;;16.50;4.40;;;;;;;14.82;100.00;101593.75;4958186;28;20966;-72
2022/10/29 04:12:56;;;;;;;7.10;3.43;;;;;;;14.87;100.00;101588.19;4956645;29;20462;-72
2022/10/29 04:15:23;;;;;;;9.43;3.10;;;;;;;14.90;100.00;101593.03;4956802;28;20467;-72
2022/10/29 04:17:51;;;;;;;7.23;2.77;;;;;;;14.93;100.00;101592.44;4956061;29;20467;-72
2022/10/29 04:20:17;;;;;;;7.97;3.43;;;;;;;14.95;100.00;101601.09;4959376;28;20471;-72
2022/10/29 04:22:43;;;;;;;10.60;2.90;;;;;;;14.95;100.00;101587.47;4956101;28;20962;-73
2022/10/29 04:25:10;;;;;;;7.80;2.87;;;;;;;14.96;100.00;101591.00;4955753;28;20494;-71
2022/10/29 04:27:36;;;;;;;8.60;3.83;;;;;;;14.96;100.00;101591.00;4956247;28;20545;-72
2022/10/29 04:30:03;;;;;;;8.33;4.20;;;;;;;14.87;100.00;101597.19;4958751;28;20475;-71
2022/10/29 04:32:30;;;;;;;9.47;3.20;;;;;;;14.84;100.00;101592.34;4955614;28;20462;-71
2022/10/29 04:34:57;;;;;;;6.50;2.80;;;;;;;14.81;100.00;101592.94;4955735;28;20467;-71
2022/10/29 04:37:24;;;;;;;8.17;3.47;;;;;;;14.77;100.00;101583.75;4955948;29;20471;-71
2022/10/29 04:39:50;;;;;;;9.47;3.90;;;;;;;14.79;100.00;101578.00;4957077;28;20462;-71
2022/10/29 04:42:16;;;;;;;8.67;3.20;;;;;;;14.80;100.00;101574.97;4956044;29;20839;-71
2022/10/29 04:44:43;;;;;;;10.93;3.20;;;;;;;14.76;100.00;101571.22;4958081;28;20499;-71
2022/10/29 04:47:09;;;;;;;7.67;3.77;;;;;;;14.77;100.00;101558.41;4955980;29;20495;-71
2022/10/29 04:49:36;;;;;;;11.53;4.23;;;;;;;14.73;100.00;101568.28;4957934;28;20521;-71
2022/10/29 04:52:04;;;;;;;13.90;3.03;;;;;;;14.71;100.00;101593.16;4955936;29;20458;-71
2022/10/29 04:54:30;;;;;;;10.10;4.43;;;;;;;14.67;100.00;101589.41;4954863;28;20467;-71
2022/10/29 04:56:57;;;;;;;9.50;5.20;;;;;;;14.66;100.00;101600.63;4920036;29;1041155;-71
2022/10/29 04:59:23;;;;;;;9.90;3.23;;;;;;;14.63;100.00;101607.50;4961731;28;20207;-70
2022/10/29 05:01:49;;;;;;;9.17;3.80;;;;;;;14.68;100.00;101610.13;4956417;29;20450;-71
2022/10/29 05:04:16;;;;;;;11.10;4.07;;;;;;;14.67;100.00;101605.78;4955489;28;20473;-73
2022/10/29 05:06:42;;;;;;;9.30;3.40;;;;;;;14.67;100.00;101613.16;4955630;28;20490;-73
2022/10/29 05:09:10;;;;;;;6.23;3.10;;;;;;;14.67;100.00;101605.78;4957236;28;20962;-73
2022/10/29 05:11:36;;;;;;;6.90;2.70;;;;;;;14.66;100.00;101606.91;4956525;29;20442;-75
2022/10/29 05:14:03;;;;;;;7.03;3.67;;;;;;;14.62;100.00;101612.16;4955925;28;20462;-73
2022/10/29 05:16:29;;;;;;;9.20;3.60;;;;;;;14.67;100.00;101613.16;4958806;28;20457;-73
2022/10/29 05:18:56;;;;;;;6.23;2.83;;;;;;;14.68;100.00;101612.84;4956065;29;20946;-73
2022/10/29 05:21:22;;;;;;;7.60;3.10;;;;;;;14.68;100.00;101612.84;4956013;28;20545;-73
2022/10/29 05:23:48;;;;;;;14.57;3.50;;;;;;;14.70;100.00;101612.53;4956404;28;20443;-73
2022/10/29 05:26:16;;;;;;;7.37;3.30;;;;;;;14.71;100.00;101614.97;4958155;28;20489;-72
2022/10/29 05:28:43;;;;;;;7.50;3.27;;;;;;;14.69;100.00;101611.72;4956029;29;20800;-74
2022/10/29 05:31:09;;;;;;;12.73;3.60;;;;;;;14.68;100.00;101610.13;4956009;28;20466;-73
2022/10/29 05:33:36;;;;;;;9.50;3.40;;;;;;;14.64;100.00;101615.38;4956126;28;20455;-73
2022/10/29 05:36:02;;;;;;;6.70;3.23;;;;;;;14.67;100.00;101608.50;4955129;28;22205;-73
2022/10/29 05:38:28;;;;;;;8.13;3.30;;;;;;;14.67;100.00;101597.59;4955094;28;20482;-73
2022/10/29 05:40:57;;;;;;;7.23;3.30;;;;;;;14.66;100.00;101593.25;4955905;28;20443;-74
2022/10/29 05:43:25;;;;;;;7.93;3.23;;;;;;;14.67;100.00;101586.69;4955188;28;20457;-73
2022/10/29 05:45:52;;;;;;;7.80;2.90;;;;;;;14.65;100.00;101588.91;4955483;28;20497;-74
2022/10/29 05:48:18;;;;;;;8.37;2.90;;;;;;;14.64;100.00;101590.03;4958553;28;20479;-73
2022/10/29 05:50:44;;;;;;;6.97;3.20;;;;;;;14.66;100.00;101584.28;4955396;28;20447;-74
2022/10/29 05:53:12;;;;;;;14.00;4.30;;;;;;;14.69;100.00;101589.91;4955245;28;20450;-73
2022/10/29 05:55:40;;;;;;;13.07;3.37;;;;;;;14.70;100.00;101596.16;4954915;28;20451;-75
2022/10/29 05:58:09;;;;;;;8.63;3.20;;;;;;;14.72;100.00;101605.69;4957654;28;20530;-74
2022/10/29 06:00:38;;;;;;;8.13;4.10;;;;;;;14.72;100.00;101610.31;4955440;29;20451;-72
2022/10/29 06:03:11;;;;;;;8.67;4.13;;;;;;;14.73;100.00;101606.47;4955440;28;20533;-68
2022/10/29 06:05:37;;;;;;;9.03;3.77;;;;;;;14.72;100.00;101605.69;4954864;28;20482;-69
2022/10/29 06:08:04;;;;;;;18.73;3.80;;;;;;;14.73;100.00;101612.75;4958844;28;20489;-66
2022/10/29 06:10:30;;;;;;;7.50;3.17;;;;;;;14.74;100.00;101617.09;4946171;28;20462;-67
2022/10/29 06:12:57;;;;;;;12.70;3.23;;;;;;;14.74;100.00;101614.38;4954686;28;20867;-67
2022/10/29 06:15:23;;;;;;;12.93;4.50;;;;;;;14.76;100.00;101617.59;4953996;28;20834;-66
2022/10/29 06:17:51;;;;;;;17.20;3.97;;;;;;;14.75;100.00;101609.72;4954690;28;20510;-67
2022/10/29 06:20:20;;;;;;;15.33;4.20;;;;;;;14.72;100.00;101616.59;4956989;28;20518;-66
2022/10/29 06:22:46;;;;;;;11.67;4.17;;;;;;;14.68;100.00;101618.31;4955151;29;20457;-67
2022/10/29 06:25:13;;;;;;;8.17;3.47;;;;;;;14.69;100.00;101614.44;4954430;28;20541;-66
2022/10/29 06:27:39;;;;;;;17.80;3.77;;;;;;;14.60;100.00;101619.81;4954369;28;20470;-66
2022/10/29 06:30:07;;;;;;;11.97;3.80;;;;;;;14.60;100.00;101624.44;4953462;28;20478;-66
2022/10/29 06:32:33;;;;;;;16.60;4.13;;;;;;;14.63;100.00;101621.13;4955010;28;20477;-66
2022/10/29 06:35:01;;;;;;;7.70;3.30;;;;;;;14.69;100.00;101628.09;4956305;28;20451;-66
2022/10/29 06:37:32;;;;;;;11.87;3.17;;;;;;;14.74;100.00;101630.75;4954189;28;20463;-66
2022/10/29 06:39:58;;;;;;;7.07;2.80;;;;;;;14.74;100.00;101630.75;4955269;28;20435;-66
2022/10/29 06:42:24;;;;;;;11.63;4.27;;;;;;;14.74;100.00;101632.63;4954537;28;20450;-67
2022/10/29 06:44:51;;;;;;;8.77;3.67;;;;;;;14.80;100.00;101626.78;4957375;28;20455;-66
2022/10/29 06:47:17;;;;;;;9.20;4.10;;;;;;;14.82;100.00;101630.00;4953783;28;20560;-68
2022/10/29 06:49:44;;;;;;;8.70;4.00;;;;;;;14.86;100.00;101633.75;4954564;29;20465;-68
2022/10/29 06:52:11;;;;;;;14.37;4.57;;;;;;;14.91;100.00;101635.56;4953608;28;20825;-68
2022/10/29 06:54:38;;;;;;;6.30;2.50;;;;;;;14.96;100.00;101631.91;4954364;28;20454;-69
2022/10/29 06:57:04;;;;;;;8.20;4.00;;;;;;;14.99;100.00;101644.97;4954480;28;20494;-70
2022/10/29 06:59:31;;;;;;;9.07;3.20;;;;;;;14.98;100.00;101646.88;4956137;28;20527;-75
2022/10/29 07:01:57;;;;;;;9.07;3.13;;;;;;;14.99;100.00;101643.03;4954022;28;20478;-75
2022/10/29 07:04:24;;;;;;;9.73;3.33;;;;;;;15.01;100.00;101643.56;4955018;28;20447;-74
2022/10/29 07:06:50;;;;;;;9.27;3.27;;;;;;;15.03;100.00;101632.31;4953938;28;20494;-75
2022/10/29 07:09:18;;;;;;;12.10;3.33;;;;;;;15.07;100.00;101636.88;4956970;28;20471;-74
2022/10/29 07:11:44;;;;;;;11.13;4.03;;;;;;;15.07;100.00;101633.34;4954866;29;20470;-75
2022/10/29 07:14:10;;;;;;;8.47;3.10;;;;;;;15.13;100.00;101640.28;4954701;28;20470;-74
2022/10/29 07:16:37;;;;;;;10.10;3.53;;;;;;;15.16;100.00;101647.06;4954861;29;20459;-75
2022/10/29 07:19:04;;;;;;;11.17;3.90;;;;;;;15.21;100.00;101655.16;4954041;28;20469;-75
2022/10/29 07:21:31;;;;;;;11.53;4.07;;;;;;;15.23;100.00;101653.75;4954844;28;20442;-75
2022/10/29 07:23:57;;;;;;;7.27;2.70;;;;;;;15.28;100.00;101653.63;4956973;28;20817;-75
2022/10/29 07:26:25;;;;;;;9.00;3.40;;;;;;;15.33;100.00;101658.16;4955017;28;20486;-74
2022/10/29 07:28:55;;;;;;;14.73;3.60;;;;;;;15.38;100.00;101664.31;4956116;28;20466;-76
2022/10/29 07:31:22;;;;;;;10.20;3.23;;;;;;;15.40;100.00;101674.91;4958155;28;20978;-75
2022/10/29 07:33:48;;;;;;;6.80;3.17;;;;;;;15.39;100.00;101676.84;4957993;28;20968;-74
2022/10/29 07:36:15;;;;;;;6.77;3.17;;;;;;;15.42;100.00;101680.09;4966849;28;20462;-76
2022/10/29 07:38:41;;;;;;;14.27;3.67;;;;;;;15.53;100.00;101690.47;4976437;28;20508;-75
2022/10/29 07:41:07;;;;;;;8.80;3.80;;;;;;;15.53;100.00;101689.66;4977388;28;20449;-75
2022/10/29 07:43:35;;;;;;;10.90;3.60;;;;;;;15.60;100.00;101679.94;4977404;28;20525;-75
2022/10/29 07:46:02;;;;;;;8.73;4.00;;;;;;;15.68;100.00;101685.81;4976850;28;21040;-75
2022/10/29 07:48:28;;;;;;;15.67;2.90;;;;;;;15.73;100.00;101686.50;4977146;28;20480;-75
2022/10/29 07:50:57;;;;;;;12.97;3.80;;;;;;;15.82;100.00;101687.38;4977239;28;20445;-75
2022/10/29 07:53:24;;;;;;;7.40;2.93;;;;;;;15.92;100.00;101691.00;4977041;28;20938;-75
2022/10/29 07:55:54;;;;;;;7.80;3.50;;;;;;;16.02;100.00;101683.34;4977185;28;20469;-74
2022/10/29 07:58:21;;;;;;;9.57;3.40;;;;;;;16.10;100.00;101681.78;4976980;28;20477;-74
2022/10/29 08:00:49;;;;;;;12.57;3.53;;;;;;;16.17;100.00;101684.91;4976675;28;20445;-75
2022/10/29 08:03:16;;;;;;;9.23;2.50;;;;;;;16.27;100.00;101692.03;4977031;28;20449;-74
2022/10/29 08:05:43;;;;;;;7.60;3.23;;;;;;;16.34;100.00;101686.94;4976451;28;20475;-75
2022/10/29 08:08:10;;;;;;;18.27;4.40;;;;;;;16.38;100.00;101686.00;4976667;28;20544;-75
2022/10/29 08:10:37;;;;;;;9.47;3.37;;;;;;;16.46;100.00;101684.41;4976683;28;20456;-74
2022/10/29 08:13:05;;;;;;;10.13;3.70;;;;;;;16.53;100.00;101689.44;4976691;28;20442;-75
2022/10/29 08:15:34;;;;;;;9.83;4.03;;;;;;;16.55;100.00;101698.94;4976376;28;20446;-74
2022/10/29 08:18:03;;;;;;;6.50;3.20;;;;;;;16.62;100.00;101699.31;4976353;28;20475;-74
2022/10/29 08:20:30;;;;;;;8.83;3.10;;;;;;;16.69;100.00;101696.16;4976378;28;20487;-75
2022/10/29 08:22:59;;;;;;;7.60;2.90;;;;;;;16.79;100.00;101701.34;4976569;28;20449;-75
2022/10/29 08:25:26;;;;;;;7.20;2.90;;;;;;;16.82;100.00;101695.25;4976166;28;20461;-74
2022/10/29 08:28:00;;;;;;;8.10;3.90;;;;;;;16.92;100.00;101696.09;4976159;28;20466;-72
2022/10/29 08:30:26;;;;;;;6.87;3.40;;;;;;;16.92;100.00;101696.09;4976015;28;20853;-73
2022/10/29 08:32:53;;;;;;;7.20;3.33;;;;;;;17.00;100.00;101695.31;4976070;28;20454;-74
2022/10/29 08:35:21;;;;;;;16.50;4.43;;;;;;;17.01;100.00;101691.47;4975895;28;20832;-73
2022/10/29 08:37:47;;;;;;;10.83;2.60;;;;;;;17.13;100.00;101697.94;4975160;28;20470;-73
2022/10/29 08:40:26;;;;;;;12.57;3.40;;;;;;;17.27;100.00;101702.50;4975828;28;20446;-72
2022/10/29 08:43:14;;;;;;;7.70;2.97;;;;;;;17.39;100.00;101694.44;4975980;28;20799;-73
2022/10/29 08:45:46;;;;;;;9.47;3.47;;;;;;;17.48;100.00;101699.94;4958175;28;20487;-73
2022/10/29 08:48:26;;;;;;;8.60;3.70;;;;;;;17.55;100.00;101686.56;4953076;28;20471;-73
2022/10/29 08:51:00;;;;;;;7.43;3.27;;;;;;;17.53;99.31;101688.81;4956110;28;20454;-73
2022/10/29 08:53:34;;;;;;;7.33;3.33;;;;;;;17.55;99.36;101698.34;4956327;28;20450;-67
2022/10/29 08:56:04;;;;;;;9.53;3.87;;;;;;;17.68;98.93;101698.50;4958650;28;20454;-69
2022/10/29 08:58:37;;;;;;;11.83;3.47;;;;;;;17.76;98.61;101704.03;4956587;28;20564;-72
2022/10/29 09:01:08;;;;;;;8.23;3.40;;;;;;;17.83;98.13;101706.28;4959202;28;20474;-72
2022/10/29 09:03:35;;;;;;;8.13;2.93;;;;;;;17.90;97.48;101699.19;4956429;29;20442;-73
2022/10/29 09:06:10;;;;;;;10.27;4.20;;;;;;;17.96;96.82;101708.03;4956321;28;20482;-72
2022/10/29 09:08:48;;;;;;;7.93;3.17;;;;;;;18.01;97.16;101704.31;4956118;29;20457;-72
2022/10/29 09:11:30;;;;;;;9.23;3.67;;;;;;;18.09;95.95;101709.00;4956980;28;20465;-73
2022/10/29 09:14:16;;;;;;;6.43;2.80;;;;;;;18.11;96.19;101704.81;4950162;28;20458;-73
2022/10/29 09:16:52;;;;;;;11.10;3.43;;;;;;;18.24;96.09;101710.44;4955743;28;20482;-73
2022/10/29 09:19:33;;;;;;;5.80;2.40;;;;;;;18.35;96.01;101712.50;4955877;28;20830;-72
2022/10/29 09:22:10;;;;;;;6.73;2.80;;;;;;;18.36;95.33;101719.59;4958803;28;20467;-73
2022/10/29 09:24:44;;;;;;;8.13;2.80;;;;;;;18.51;95.50;101722.97;4955419;28;20853;-72
2022/10/29 09:27:17;;;;;;;8.00;2.60;;;;;;;18.52;94.78;101721.84;4955510;28;20493;-73
2022/10/29 09:29:59;;;;;;;9.03;3.40;;;;;;;18.58;93.98;101723.25;4955289;28;20494;-72
2022/10/29 09:32:31;;;;;;;7.77;2.30;;;;;;;18.65;93.43;101724.38;4957608;28;20462;-72
2022/10/29 09:35:03;;;;;;;8.80;3.20;;;;;;;18.63;93.56;101717.59;4954234;28;20857;-72
2022/10/29 09:37:40;;;;;;;5.83;2.63;;;;;;;18.72;92.90;101704.69;4958241;28;20579;-73
2022/10/29 09:40:16;;;;;;;8.23;2.70;;;;;;;18.68;92.97;101714.66;4954310;28;20458;-71
2022/10/29 09:42:46;;;;;;;9.33;3.37;;;;;;;18.77;92.30;101707.28;4955078;28;20831;-73
2022/10/29 09:45:16;;;;;;;7.70;3.07;;;;;;;18.86;92.31;101694.31;4955326;28;20965;-72
2022/10/29 09:47:50;;;;;;;8.83;3.27;;;;;;;18.98;91.95;101699.06;4957393;28;20497;-74
2022/10/29 09:50:24;;;;;;;5.57;2.40;;;;;;;19.05;91.66;101704.06;4955203;28;20457;-72
2022/10/29 09:52:53;;;;;;;5.73;1.90;;;;;;;19.16;91.55;101689.59;4954892;28;20458;-73
2022/10/29 09:55:24;;;;;;;7.60;2.33;;;;;;;19.25;91.16;101692.31;4955387;28;20434;-72
2022/10/29 09:57:51;;;;;;;9.80;3.17;;;;;;;19.18;89.84;101692.03;4957356;28;20489;-72
2022/10/29 10:00:21;;;;;;;7.20;2.57;;;;;;;19.12;90.14;101694.19;4954936;28;20447;-73
2022/10/29 10:02:54;;;;;;;6.60;2.37;;;;;;;19.14;90.44;101691.91;4953528;28;20455;-72
2022/10/29 10:05:25;;;;;;;6.67;2.80;;;;;;;19.18;89.95;101692.03;4955085;28;20444;-73
2022/10/29 10:08:06;;;;;;;7.20;3.13;;;;;;;19.19;89.87;101693.66;4954247;28;20998;-73
2022/10/29 10:10:34;;;;;;;5.67;2.57;;;;;;;18.98;90.79;101690.03;4955181;28;20870;-72
2022/10/29 10:13:03;;;;;;;8.77;3.20;;;;;;;19.06;90.62;101689.19;4955021;28;20522;-73
2022/10/29 10:15:32;;;;;;;6.60;2.90;;;;;;;19.03;92.08;101693.41;4951935;28;20839;-73
2022/10/29 10:18:01;;;;;;;11.93;3.40;;;;;;;19.19;90.84;101690.91;4954422;28;20994;-73
2022/10/29 10:20:48;;;;;;;5.80;2.60;;;;;;;19.17;90.86;101679.44;4957191;28;20451;-73
2022/10/29 10:23:24;;;;;;;7.80;3.60;;;;;;;19.24;90.08;101682.47;4954780;28;20481;-73
2022/10/29 10:25:54;;;;;;;17.77;2.90;;;;;;;19.45;89.64;101679.75;4954593;28;20469;-73
2022/10/29 10:28:22;;;;;;;21.57;3.50;;;;;;;19.48;88.14;101673.59;4955729;28;20866;-72
2022/10/29 10:31:16;;;;;;;6.80;2.20;;;;;;;19.57;88.69;101666.06;4961063;28;20470;-73
2022/10/29 10:33:51;;;;;;;9.30;3.13;;;;;;;19.51;89.26;101667.41;4920767;28;20471;-74
2022/10/29 10:36:20;;;;;;;10.83;2.90;;;;;;;19.57;88.14;101668.03;4954046;28;20454;-75
2022/10/29 10:38:50;;;;;;;7.30;3.07;;;;;;;19.60;88.09;101659.09;4954625;28;20514;-75
2022/10/29 10:41:24;;;;;;;9.03;3.33;;;;;;;19.77;87.82;101664.47;4959026;28;20450;-75
2022/10/29 10:43:50;;;;;;;9.20;2.50;;;;;;;19.74;87.76;101669.84;4954866;28;20818;-76
2022/10/29 10:46:23;;;;;;;6.13;2.47;;;;;;;19.84;87.63;101675.75;4953668;28;20467;-76
2022/10/29 10:48:58;;;;;;;4.83;1.83;;;;;;;20.16;87.14;101676.09;4954929;28;20471;-76
2022/10/29 10:51:28;;;;;;;9.27;2.83;;;;;;;20.33;85.22;101680.59;4957310;28;20450;-76
2022/10/29 10:53:57;;;;;;;8.30;2.90;;;;;;;20.49;83.45;101675.25;4954884;29;20526;-75
2022/10/29 10:56:23;;;;;;;6.80;1.90;;;;;;;20.68;83.58;101680.25;4954134;28;20463;-75
2022/10/29 10:59:01;;;;;;;7.83;2.80;;;;;;;20.86;81.77;101676.91;4954940;28;20457;-76
2022/10/29 11:01:32;;;;;;;11.10;2.87;;;;;;;20.98;80.52;101678.03;4957671;28;20458;-73
2022/10/29 11:04:05;;;;;;;7.03;3.07;;;;;;;20.88;80.75;101673.81;4958322;28;20522;-73
2022/10/29 11:06:35;;;;;;;5.83;2.57;;;;;;;20.86;80.60;101660.38;4957700;28;20501;-72
2022/10/29 11:09:08;;;;;;;14.50;3.20;;;;;;;21.24;79.05;101653.69;4958999;28;20459;-72
2022/10/29 11:11:39;;;;;;;7.47;2.37;;;;;;;21.86;77.32;101659.84;4961628;28;20969;-73
2022/10/29 11:14:14;;;;;;;6.47;2.30;;;;;;;22.66;74.65;101658.81;4957881;28;20841;-72
2022/10/29 11:16:46;;;;;;;7.20;2.40;;;;;;;23.57;70.24;101657.75;4958077;28;20470;-72
2022/10/29 11:19:20;;;;;;;10.87;3.07;;;;;;;24.32;68.03;101650.91;4958069;28;20823;-72
2022/10/29 11:21:58;;;;;;;4.63;1.97;;;;;;;24.51;65.32;101645.31;4960365;28;20828;-72
2022/10/29 11:24:37;;;;;;;4.20;1.53;;;;;;;24.66;64.74;101638.84;4957976;28;20515;-71
2022/10/29 11:27:12;;;;;;;11.70;2.17;;;;;;;25.14;63.14;101641.94;4957441;28;20580;-72
2022/10/29 11:29:45;;;;;;;5.93;2.90;;;;;;;25.60;60.98;101640.97;4957139;28;20458;-73